Time;durP1;ratioP1;P1;durP2;ratioP2;P2;SDS_P1;SDS_P2;PMS_P1;PMS_P2;Temp;Humidity;BMP_temperature;BMP_pressure;BME280_temperature;BME280_humidity;BME280_pressure;Samples;Min_cycle;Max_cycle;Signal;HPM_P1;HPM_P2
2023/04/12 00:00:00;;;;;;;;;;;;;;;17.59;69.62;99677.19;7395377;19;1844;-47
2023/04/12 00:02:37;;;;;;;;;;;;;;;17.57;69.86;99670.31;7396855;19;1206;-47
2023/04/12 00:05:08;;;;;;;;;;;;;;;17.53;69.96;99675.13;7393748;19;1491;-47
2023/04/12 00:07:37;;;;;;;;;;;;;;;17.67;69.37;99671.91;7397658;19;1527;-46
2023/04/12 00:10:06;;;;;;;;;;;;;;;17.59;69.72;99666.50;7395698;19;1553;-46
2023/04/12 00:12:35;;;;;;;;;;;;;;;17.58;70.08;99651.44;7397849;19;1106;-47
2023/04/12 00:15:03;;;;;;;;;;;;;;;17.63;69.44;99659.84;7396433;19;1483;-47
2023/04/12 00:17:31;;;;;;;;;;;;;;;17.63;69.44;99651.00;7396507;19;1190;-47
2023/04/12 00:20:04;;;;;;;;;;;;;;;17.58;69.62;99655.94;7397741;19;1858;-47
2023/04/12 00:22:33;;;;;;;;;;;;;;;17.64;69.64;99649.97;7397995;19;1626;-47
2023/04/12 00:25:01;;;;;;;;;;;;;;;17.59;69.69;99654.97;7397049;19;1155;-46
2023/04/12 00:27:29;;;;;;;;;;;;;;;17.61;69.78;99651.13;7396699;19;1551;-47
2023/04/12 00:29:58;;;;;;;;;;;;;;;17.60;69.92;99659.31;7397677;19;1279;-47
2023/04/12 00:32:26;;;;;;;;;;;;;;;17.60;69.82;99651.28;7395490;19;1543;-47
2023/04/12 00:34:54;;;;;;;;;;;;;;;17.50;70.09;99660.19;7396026;19;1558;-47
2023/04/12 00:37:25;;;;;;;;;;;;;;;17.52;70.04;99657.38;7398107;19;1166;-46
2023/04/12 00:39:54;;;;;;;;;;;;;;;17.56;70.01;99652.56;7396557;19;1919;-47
2023/04/12 00:42:22;;;;;;;;;;;;;;;17.60;69.93;99645.94;7397206;19;1487;-47
2023/04/12 00:44:50;;;;;;;;;;;;;;;17.60;69.83;99637.91;7396055;19;1192;-46
2023/04/12 00:47:18;;;;;;;;;;;;;;;17.57;69.47;99631.06;7396091;19;2052;-46
2023/04/12 00:49:47;;;;;;;;;;;;;;;17.49;70.11;99621.13;7396539;19;1062;-47
2023/04/12 00:52:16;;;;;;;;;;;;;;;17.52;69.74;99629.81;7396112;19;1847;-47
2023/04/12 00:54:47;;;;;;;;;;;;;;;17.56;69.70;99616.00;7395393;19;1858;-47
2023/04/12 00:57:15;;;;;;;;;;;;;;;17.51;69.48;99620.97;7396756;19;1562;-47
2023/04/12 00:59:44;;;;;;;;;;;;;;;17.57;69.78;99632.88;7393631;19;1691;-47
2023/04/12 01:02:12;;;;;;;;;;;;;;;17.50;69.54;99619.28;7394132;19;1849;-47
2023/04/12 01:04:42;;;;;;;;;;;;;;;17.59;69.40;99622.88;7395549;19;1280;-47
2023/04/12 01:07:16;;;;;;;;;;;;;;;17.59;69.54;99620.22;7397043;19;1174;-47
2023/04/12 01:09:53;;;;;;;;;;;;;;;17.46;69.60;99621.41;7396732;19;999;-47
2023/04/12 01:12:27;;;;;;;;;;;;;;;17.45;69.63;99610.91;7396089;19;1532;-46
2023/04/12 01:14:59;;;;;;;;;;;;;;;17.59;69.42;99610.34;7395441;19;1173;-46
2023/04/12 01:17:30;;;;;;;;;;;;;;;17.47;69.34;99606.25;7402947;19;1138;-47
2023/04/12 01:20:00;;;;;;;;;;;;;;;17.53;69.55;99615.44;7403764;19;1638;-47
2023/04/12 01:22:33;;;;;;;;;;;;;;;17.44;69.38;99607.38;7403979;19;1046;-46
2023/04/12 01:25:15;;;;;;;;;;;;;;;17.46;69.74;99589.34;7403275;19;1090;-47
2023/04/12 01:27:48;;;;;;;;;;;;;;;17.48;69.51;99600.72;7402436;19;1574;-47
2023/04/12 01:30:18;;;;;;;;;;;;;;;17.47;69.24;99604.41;7403198;19;1178;-47
2023/04/12 01:32:49;;;;;;;;;;;;;;;17.53;69.60;99604.75;7402014;19;1555;-46
2023/04/12 01:35:18;;;;;;;;;;;;;;;17.44;69.62;99595.84;7401920;19;1470;-47
2023/04/12 01:37:47;;;;;;;;;;;;;;;17.42;69.89;99604.00;7402523;19;1551;-47
2023/04/12 01:40:15;;;;;;;;;;;;;;;17.47;69.61;99595.56;7402531;19;1879;-47
2023/04/12 01:42:46;;;;;;;;;;;;;;;17.38;69.91;99589.28;7402045;19;1941;-47
2023/04/12 01:45:15;;;;;;;;;;;;;;;17.72;69.14;99593.88;7402441;19;1530;-47
2023/04/12 01:47:43;;;;;;;;;;;;;;;18.77;66.10;99583.94;7401318;19;1551;-47
2023/04/12 01:50:15;;;;;;;;;;;;;;;19.38;64.48;99589.13;7401878;19;1584;-46
2023/04/12 01:52:47;;;;;;;;;;;;;;;19.89;63.26;99586.28;7402809;19;1050;-47
2023/04/12 01:55:16;;;;;;;;;;;;;;;19.84;63.36;99582.25;7402782;19;1071;-47
2023/04/12 01:57:49;;;;;;;;;;;;;;;19.71;64.10;99595.34;7401258;19;1955;-47
2023/04/12 02:00:18;;;;;;;;;;;;;;;19.68;63.99;99598.34;7401952;19;1849;-47
2023/04/12 02:02:46;;;;;;;;;;;;;;;19.66;64.11;99589.63;7401320;19;1507;-47
2023/04/12 02:05:15;;;;;;;;;;;;;;;19.71;64.11;99589.97;7401821;19;1360;-47
2023/04/12 02:07:43;;;;;;;;;;;;;;;19.72;64.01;99593.50;7401837;19;1630;-49
2023/04/12 02:10:15;;;;;;;;;;;;;;;19.74;64.14;99595.00;7401751;19;1500;-47
2023/04/12 02:12:43;;;;;;;;;;;;;;;19.79;63.96;99586.44;7402444;19;1316;-47
2023/04/12 02:15:15;;;;;;;;;;;;;;;19.81;63.97;99597.84;7401680;19;1428;-47
2023/04/12 02:17:45;;;;;;;;;;;;;;;19.84;63.86;99589.47;7401431;19;1192;-47
2023/04/12 02:20:14;;;;;;;;;;;;;;;19.89;63.80;99583.59;7401684;19;1630;-47
2023/04/12 02:22:42;;;;;;;;;;;;;;;19.84;64.05;99581.44;7399166;19;1854;-47
2023/04/12 02:25:11;;;;;;;;;;;;;;;19.94;63.67;99608.91;7402071;19;1125;-47
2023/04/12 02:27:39;;;;;;;;;;;;;;;19.99;63.54;99594.97;7400330;19;1553;-47
2023/04/12 02:30:08;;;;;;;;;;;;;;;19.98;63.35;99593.31;7399158;19;1267;-47
2023/04/12 02:32:43;;;;;;;;;;;;;;;19.89;64.07;99592.47;7401385;19;1251;-47
2023/04/12 02:35:11;;;;;;;;;;;;;;;19.74;65.39;99592.34;7400537;19;1289;-47
2023/04/12 02:37:40;;;;;;;;;;;;;;;19.85;65.15;99594.66;7400844;19;1239;-47
2023/04/12 02:40:09;;;;;;;;;;;;;;;19.85;65.57;99593.81;7401691;19;1650;-47
2023/04/12 02:42:38;;;;;;;;;;;;;;;19.96;65.00;99580.06;7398844;19;1846;-47
2023/04/12 02:45:07;;;;;;;;;;;;;;;20.27;63.93;99585.53;7399578;19;1372;-47
2023/04/12 02:47:36;;;;;;;;;;;;;;;20.37;63.75;99573.72;7398808;19;1530;-47
2023/04/12 02:50:08;;;;;;;;;;;;;;;20.50;63.28;99583.94;7401439;19;1166;-47
2023/04/12 02:52:36;;;;;;;;;;;;;;;20.46;63.30;99584.28;7401954;19;1082;-47
2023/04/12 02:55:05;;;;;;;;;;;;;;;20.45;63.44;99569.19;7400621;19;1559;-47
2023/04/12 02:57:33;;;;;;;;;;;;;;;20.53;62.97;99578.19;7399190;19;1659;-47
2023/04/12 03:00:06;;;;;;;;;;;;;;;20.50;62.92;99568.66;7397354;19;1685;-47
2023/04/12 03:02:35;;;;;;;;;;;;;;;20.56;63.00;99589.44;7397350;19;1853;-47
2023/04/12 03:05:03;;;;;;;;;;;;;;;20.51;63.15;99583.75;7398924;19;1257;-47
2023/04/12 03:07:35;;;;;;;;;;;;;;;20.55;62.75;99593.16;7398700;19;1174;-47
2023/04/12 03:10:05;;;;;;;;;;;;;;;20.62;62.83;99563.75;7399034;19;1559;-46
2023/04/12 03:12:33;;;;;;;;;;;;;;;20.62;62.66;99572.66;7400177;19;1076;-47
2023/04/12 03:15:02;;;;;;;;;;;;;;;20.63;62.67;99566.28;7399039;19;1217;-47
2023/04/12 03:17:30;;;;;;;;;;;;;;;20.63;62.75;99579.72;7399705;19;1226;-46
2023/04/12 03:19:58;;;;;;;;;;;;;;;20.64;62.59;99562.56;7399202;19;1653;-47
2023/04/12 03:22:27;;;;;;;;;;;;;;;20.51;62.70;99575.69;7398489;19;1861;-47
2023/04/12 03:24:57;;;;;;;;;;;;;;;20.40;63.37;99573.41;7399234;19;1630;-46
2023/04/12 03:27:26;;;;;;;;;;;;;;;20.34;63.21;99571.41;7398622;19;1554;-47
2023/04/12 03:29:55;;;;;;;;;;;;;;;20.34;63.41;99584.84;7399603;19;1273;-47
2023/04/12 03:32:23;;;;;;;;;;;;;;;20.40;63.24;99578.75;7398942;19;1531;-47
2023/04/12 03:34:51;;;;;;;;;;;;;;;20.63;62.64;99571.66;7398611;19;1550;-47
2023/04/12 03:37:19;;;;;;;;;;;;;;;20.73;62.30;99578.63;7397534;19;1638;-47
2023/04/12 03:39:49;;;;;;;;;;;;;;;20.73;62.62;99575.94;7396608;19;1510;-47
2023/04/12 03:42:20;;;;;;;;;;;;;;;20.74;62.38;99583.00;7396907;19;1841;-47
2023/04/12 03:44:48;;;;;;;;;;;;;;;20.80;62.11;99593.06;7397563;19;1453;-47
2023/04/12 03:47:16;;;;;;;;;;;;;;;20.78;62.18;99589.72;7398276;19;1170;-46
2023/04/12 03:49:44;;;;;;;;;;;;;;;20.78;62.21;99578.97;7398052;19;1962;-47
2023/04/12 03:52:13;;;;;;;;;;;;;;;20.66;62.39;99598.16;7398746;19;1546;-47
2023/04/12 03:54:42;;;;;;;;;;;;;;;20.55;62.80;99585.09;7397103;19;1300;-47
2023/04/12 03:57:10;;;;;;;;;;;;;;;20.50;62.91;99608.09;7397563;19;1566;-46
2023/04/12 03:59:41;;;;;;;;;;;;;;;20.51;62.80;99582.91;7396460;19;1543;-47
2023/04/12 04:02:09;;;;;;;;;;;;;;;20.00;64.23;99596.66;7395781;19;1853;-47
2023/04/12 04:04:38;;;;;;;;;;;;;;;19.64;65.20;99597.00;7396239;19;1450;-47
2023/04/12 04:07:06;;;;;;;;;;;;;;;19.43;66.06;99581.41;7389584;19;1158;-47
2023/04/12 04:09:35;;;;;;;;;;;;;;;19.24;66.36;99596.81;7396963;19;1701;-47
2023/04/12 04:12:03;;;;;;;;;;;;;;;19.01;67.04;99601.94;7395409;19;1554;-47
2023/04/12 04:14:33;;;;;;;;;;;;;;;18.97;67.09;99591.72;7396750;19;1177;-47
2023/04/12 04:17:04;;;;;;;;;;;;;;;19.22;66.44;99600.66;7397638;19;1156;-47
2023/04/12 04:19:33;;;;;;;;;;;;;;;19.59;65.10;99589.44;7397061;19;1620;-47
2023/04/12 04:22:03;;;;;;;;;;;;;;;19.63;65.02;99592.63;7395390;19;1861;-47
2023/04/12 04:24:33;;;;;;;;;;;;;;;19.37;65.74;99599.00;7396210;19;1618;-47
2023/04/12 04:27:01;;;;;;;;;;;;;;;19.21;66.14;99594.44;7396622;19;1381;-47
2023/04/12 04:29:30;;;;;;;;;;;;;;;19.10;66.41;99610.00;7397151;19;1208;-47
2023/04/12 04:31:58;;;;;;;;;;;;;;;19.07;66.44;99585.22;7397560;19;1575;-47
2023/04/12 04:34:30;;;;;;;;;;;;;;;19.31;65.79;99610.38;7396313;19;1524;-47
2023/04/12 04:36:59;;;;;;;;;;;;;;;19.58;65.31;99611.09;7397348;19;1034;-47
2023/04/12 04:39:28;;;;;;;;;;;;;;;19.32;66.11;99605.84;7392891;19;1191;-47
2023/04/12 04:41:56;;;;;;;;;;;;;;;19.01;66.91;99617.19;7395945;19;1862;-46
2023/04/12 04:44:25;;;;;;;;;;;;;;;18.88;67.21;99612.31;7394798;19;1256;-47
2023/04/12 04:46:53;;;;;;;;;;;;;;;18.82;67.45;99623.66;7393626;19;1797;-46
2023/04/12 04:49:21;;;;;;;;;;;;;;;19.21;66.70;99618.56;7394717;19;1540;-46
2023/04/12 04:51:52;;;;;;;;;;;;;;;19.46;66.12;99632.84;7394834;19;1593;-46
2023/04/12 04:54:20;;;;;;;;;;;;;;;19.23;66.91;99624.59;7393237;19;1165;-46
2023/04/12 04:56:49;;;;;;;;;;;;;;;19.15;67.02;99629.13;7391880;19;1193;-46
2023/04/12 04:59:17;;;;;;;;;;;;;;;19.04;67.18;99616.88;7390574;19;1457;-46
2023/04/12 05:01:45;;;;;;;;;;;;;;;18.84;67.42;99629.69;7392629;19;1856;-46
2023/04/12 05:04:13;;;;;;;;;;;;;;;19.27;66.48;99619.75;7392071;19;1572;-46
2023/04/12 05:06:42;;;;;;;;;;;;;;;19.47;65.96;99631.84;7391059;19;1807;-46
2023/04/12 05:09:12;;;;;;;;;;;;;;;19.32;66.68;99616.56;7391770;19;1986;-46
2023/04/12 05:11:41;;;;;;;;;;;;;;;19.14;67.11;99627.44;7393426;19;1583;-46
2023/04/12 05:14:09;;;;;;;;;;;;;;;18.96;67.17;99628.41;7392466;19;1193;-46
2023/04/12 05:16:37;;;;;;;;;;;;;;;18.90;67.57;99621.03;7390737;19;1461;-46
2023/04/12 05:19:05;;;;;;;;;;;;;;;19.35;66.68;99630.50;7390755;19;1567;-46
2023/04/12 05:21:34;;;;;;;;;;;;;;;19.67;65.74;99628.84;7390826;19;2344;-46
2023/04/12 05:24:03;;;;;;;;;;;;;;;19.37;66.68;99639.19;7391984;19;1159;-46
2023/04/12 05:26:34;;;;;;;;;;;;;;;19.17;67.05;99652.06;7390672;19;1513;-46
2023/04/12 05:29:02;;;;;;;;;;;;;;;19.06;67.35;99650.53;7395249;19;1376;-46
2023/04/12 05:31:31;;;;;;;;;;;;;;;18.87;68.04;99656.16;7394748;19;1208;-46
2023/04/12 05:33:59;;;;;;;;;;;;;;;19.32;66.63;99651.41;7395791;19;1173;-46
2023/04/12 05:36:27;;;;;;;;;;;;;;;19.64;65.89;99639.91;7394957;19;1828;-46
2023/04/12 05:38:56;;;;;;;;;;;;;;;19.41;66.39;99639.72;7393691;19;1245;-46
2023/04/12 05:41:24;;;;;;;;;;;;;;;19.20;67.19;99658.94;7394371;19;1549;-46
2023/04/12 05:43:55;;;;;;;;;;;;;;;19.03;67.20;99663.41;7393049;19;1841;-46
2023/04/12 05:46:23;;;;;;;;;;;;;;;18.83;68.05;99662.84;7394005;19;1625;-46
2023/04/12 05:48:51;;;;;;;;;;;;;;;19.28;66.56;99665.16;7394251;19;1476;-46
2023/04/12 05:51:20;;;;;;;;;;;;;;;19.60;65.68;99652.81;7394573;19;1490;-46
2023/04/12 05:53:48;;;;;;;;;;;;;;;19.41;66.23;99656.63;7394132;19;1331;-46
2023/04/12 05:56:16;;;;;;;;;;;;;;;19.07;67.28;99654.88;7394321;19;1539;-46
2023/04/12 05:58:46;;;;;;;;;;;;;;;18.82;67.51;99664.69;7392814;19;1264;-46
2023/04/12 06:01:18;;;;;;;;;;;;;;;18.64;68.28;99647.81;7394094;19;1557;-46
2023/04/12 06:03:46;;;;;;;;;;;;;;;19.07;66.51;99629.94;7397969;19;1872;-46
2023/04/12 06:06:15;;;;;;;;;;;;;;;19.36;65.44;99634.84;7401652;19;1614;-46
2023/04/12 06:08:43;;;;;;;;;;;;;;;19.36;65.76;99632.19;7401298;19;1248;-47
2023/04/12 06:11:11;;;;;;;;;;;;;;;19.05;66.51;99608.66;7400377;19;1279;-46
2023/04/12 06:13:40;;;;;;;;;;;;;;;18.92;66.48;99635.09;7402366;19;1256;-46
2023/04/12 06:16:08;;;;;;;;;;;;;;;18.71;67.02;99638.16;7399816;19;1368;-46
2023/04/12 06:18:40;;;;;;;;;;;;;;;19.08;64.76;99635.13;7398469;19;1377;-46
2023/04/12 06:21:08;;;;;;;;;;;;;;;19.36;63.90;99632.19;7400849;19;1550;-46
2023/04/12 06:23:36;;;;;;;;;;;;;;;19.23;63.71;99632.66;7399121;19;1856;-46
2023/04/12 06:26:05;;;;;;;;;;;;;;;18.96;65.33;99636.44;7399915;19;1387;-46
2023/04/12 06:28:33;;;;;;;;;;;;;;;18.77;66.38;99644.72;7394558;19;1129;-46
2023/04/12 06:31:01;;;;;;;;;;;;;;;18.78;66.23;99635.66;7401472;19;1284;-46
2023/04/12 06:33:29;;;;;;;;;;;;;;;19.23;65.43;99645.22;7399578;19;1520;-46
2023/04/12 06:36:00;;;;;;;;;;;;;;;19.38;65.08;99635.53;7399597;19;1582;-46
2023/04/12 06:38:28;;;;;;;;;;;;;;;19.22;66.00;99640.88;7400198;19;1317;-46
2023/04/12 06:40:57;;;;;;;;;;;;;;;18.99;67.17;99629.91;7398634;19;1292;-46
2023/04/12 06:43:25;;;;;;;;;;;;;;;18.91;68.29;99645.97;7397515;19;1845;-46
2023/04/12 06:45:55;;;;;;;;;;;;;;;18.82;67.86;99640.59;7398630;19;1537;-46
2023/04/12 06:48:24;;;;;;;;;;;;;;;19.36;66.95;99642.03;7395399;19;1559;-49
2023/04/12 06:50:52;;;;;;;;;;;;;;;19.45;67.07;99636.53;7397164;19;1172;-49
2023/04/12 06:53:23;;;;;;;;;;;;;;;19.19;69.14;99627.78;7397928;19;1697;-49
2023/04/12 06:55:52;;;;;;;;;;;;;;;19.06;69.12;99639.00;7397682;19;1499;-49
2023/04/12 06:58:20;;;;;;;;;;;;;;;18.84;70.04;99641.25;7399078;19;1117;-49
2023/04/12 07:00:49;;;;;;;;;;;;;;;19.06;70.29;99633.63;7398817;19;1563;-48
2023/04/12 07:03:17;;;;;;;;;;;;;;;19.47;69.16;99639.88;7396688;19;1853;-48
2023/04/12 07:05:46;;;;;;;;;;;;;;;19.42;69.57;99636.88;7397132;19;1475;-48
2023/04/12 07:08:14;;;;;;;;;;;;;;;19.16;70.31;99641.50;7398478;19;1546;-49
2023/04/12 07:10:45;;;;;;;;;;;;;;;19.03;70.38;99633.94;7399304;19;1480;-49
2023/04/12 07:13:13;;;;;;;;;;;;;;;18.89;71.38;99635.41;7397200;19;1252;-49
2023/04/12 07:15:42;;;;;;;;;;;;;;;19.08;71.29;99645.84;7398391;19;1296;-49
2023/04/12 07:18:10;;;;;;;;;;;;;;;19.47;70.26;99636.38;7397371;19;1286;-49
2023/04/12 07:20:38;;;;;;;;;;;;;;;19.31;70.54;99655.94;7397298;19;1545;-49
2023/04/12 07:23:06;;;;;;;;;;;;;;;19.15;70.81;99658.59;7396867;19;1851;-48
2023/04/12 07:25:35;;;;;;;;;;;;;;;19.12;71.31;99640.16;7398837;19;1107;-48
2023/04/12 07:28:06;;;;;;;;;;;;;;;19.02;71.95;99642.97;7398358;19;1594;-48
2023/04/12 07:30:34;;;;;;;;;;;;;;;19.19;72.27;99657.28;7398057;19;1238;-48
2023/04/12 07:33:04;;;;;;;;;;;;;;;19.53;70.78;99640.22;7397813;19;1268;-48
2023/04/12 07:35:32;;;;;;;;;;;;;;;19.37;71.13;99655.28;7390082;19;1542;-49
2023/04/12 07:38:01;;;;;;;;;;;;;;;19.18;71.49;99674.34;7393902;19;1821;-48
2023/04/12 07:40:30;;;;;;;;;;;;;;;18.99;71.50;99641.47;7393966;19;1408;-49
2023/04/12 07:42:58;;;;;;;;;;;;;;;18.82;73.16;99651.31;7395069;19;1865;-49
2023/04/12 07:45:29;;;;;;;;;;;;;;;19.28;71.28;99645.56;7395642;19;1491;-48
2023/04/12 07:47:57;;;;;;;;;;;;;;;19.44;70.85;99645.59;7396136;19;1451;-49
2023/04/12 07:50:26;;;;;;;;;;;;;;;19.28;71.43;99640.22;7395415;19;1389;-49
2023/04/12 07:52:54;;;;;;;;;;;;;;;19.08;71.50;99640.50;7395635;19;1511;-49
2023/04/12 07:55:23;;;;;;;;;;;;;;;19.01;71.51;99642.13;7396585;19;1110;-49
2023/04/12 07:57:52;;;;;;;;;;;;;;;18.89;72.86;99654.16;7395395;19;1971;-48
2023/04/12 08:00:20;;;;;;;;;;;;;;;19.35;70.69;99632.34;7395226;19;1446;-49
2023/04/12 08:02:51;;;;;;;;;;;;;;;19.54;70.59;99631.19;7395127;19;1857;-49
2023/04/12 08:05:19;;;;;;;;;;;;;;;19.30;71.23;99656.97;7394622;19;1503;-49
2023/04/12 08:07:48;;;;;;;;;;;;;;;19.06;71.58;99644.34;7393064;19;1710;-49
2023/04/12 08:10:16;;;;;;;;;;;;;;;18.89;72.08;99632.72;7395345;19;1548;-49
2023/04/12 08:12:44;;;;;;;;;;;;;;;18.96;72.23;99630.22;7395050;19;1090;-49
2023/04/12 08:15:14;;;;;;;;;;;;;;;19.53;70.36;99642.91;7395620;19;1612;-50
2023/04/12 08:17:42;;;;;;;;;;;;;;;19.40;71.19;99644.25;7395494;19;1265;-50
2023/04/12 08:20:14;;;;;;;;;;;;;;;19.21;71.35;99641.84;7395122;19;1445;-49
2023/04/12 08:22:42;;;;;;;;;;;;;;;19.08;71.42;99632.47;7394229;19;1860;-49
2023/04/12 08:25:11;;;;;;;;;;;;;;;18.90;71.93;99639.78;7345612;19;13013;-50
2023/04/12 08:27:40;;;;;;;;;;;;;;;19.16;71.29;99642.38;7394621;19;1608;-49
2023/04/12 08:30:10;;;;;;;;;;;;;;;19.56;70.09;99637.22;7395556;19;1253;-49
2023/04/12 08:32:39;;;;;;;;;;;;;;;19.48;70.57;99646.94;7395590;19;1572;-49
2023/04/12 08:35:08;;;;;;;;;;;;;;;19.28;71.02;99634.84;7393198;19;1543;-48
2023/04/12 08:37:39;;;;;;;;;;;;;;;19.16;71.10;99653.09;7394490;19;1237;-48
2023/04/12 08:40:08;;;;;;;;;;;;;;;19.02;71.64;99643.84;7394961;19;1108;-48
2023/04/12 08:42:38;;;;;;;;;;;;;;;19.05;71.52;99639.97;7393838;19;1853;-49
2023/04/12 08:45:07;;;;;;;;;;;;;;;19.41;70.54;99645.91;7393319;19;1535;-48
2023/04/12 08:47:36;;;;;;;;;;;;;;;19.43;70.65;99632.34;7393425;19;1607;-48
2023/04/12 08:50:07;;;;;;;;;;;;;;;19.21;71.03;99628.47;7392910;19;1564;-49
2023/04/12 08:52:35;;;;;;;;;;;;;;;19.16;71.33;99630.78;7394839;19;1456;-48
2023/04/12 08:55:07;;;;;;;;;;;;;;;18.98;71.82;99633.59;7394273;19;1173;-49
2023/04/12 08:57:36;;;;;;;;;;;;;;;19.10;71.54;99632.31;7393076;19;1407;-49
2023/04/12 09:00:04;;;;;;;;;;;;;;;19.56;69.93;99626.50;7392166;19;2051;-49
2023/04/12 09:02:33;;;;;;;;;;;;;;;19.48;70.44;99633.53;7395430;19;1253;-49
2023/04/12 09:05:01;;;;;;;;;;;;;;;19.24;71.30;99633.50;7393104;19;1873;-49
2023/04/12 09:07:30;;;;;;;;;;;;;;;19.14;71.68;99638.16;7394845;19;1154;-49
2023/04/12 09:09:58;;;;;;;;;;;;;;;19.01;72.26;99638.63;7395135;19;1209;-49
2023/04/12 09:12:29;;;;;;;;;;;;;;;19.01;72.69;99636.78;7395359;19;1080;-49
2023/04/12 09:15:08;;;;;;;;;;;;;;;19.32;71.64;99614.75;7394333;19;1440;-52
2023/04/12 09:17:38;;;;;;;;;;;;;;;19.53;70.97;99616.09;7393564;19;1170;-49
2023/04/12 09:20:24;;;;;;;;;;;;;;;19.29;71.46;99633.84;7393745;19;1084;-49
2023/04/12 09:22:54;;;;;;;;;;;;;;;19.21;71.80;99629.28;7394134;19;1859;-49
2023/04/12 09:25:37;;;;;;;;;;;;;;;18.99;72.40;99630.75;7394806;19;1310;-49
2023/04/12 09:28:20;;;;;;;;;;;;;;;19.01;72.47;99612.66;7392356;19;1385;-48
2023/04/12 09:30:50;;;;;;;;;;;;;;;19.52;70.99;99619.78;7393369;19;1272;-49
2023/04/12 09:33:19;;;;;;;;;;;;;;;19.37;71.09;99607.03;7391937;19;1460;-50
2023/04/12 09:35:47;;;;;;;;;;;;;;;19.26;71.41;99621.59;7392030;19;1546;-49
2023/04/12 09:38:16;;;;;;;;;;;;;;;19.04;71.77;99607.00;7398978;19;1207;-49
2023/04/12 09:40:45;;;;;;;;;;;;;;;18.91;72.03;99617.34;7399786;19;1632;-49
2023/04/12 09:43:16;;;;;;;;;;;;;;;19.14;71.57;99627.44;7398207;19;1871;-49
2023/04/12 09:45:44;;;;;;;;;;;;;;;19.48;70.70;99608.56;7398929;19;1405;-49
2023/04/12 09:48:20;;;;;;;;;;;;;;;19.45;70.73;99614.25;7399674;19;1497;-49
2023/04/12 09:50:49;;;;;;;;;;;;;;;19.24;71.14;99623.63;7398541;19;1293;-48
2023/04/12 09:53:19;;;;;;;;;;;;;;;19.08;71.33;99613.69;7398455;19;1477;-49
2023/04/12 09:55:48;;;;;;;;;;;;;;;18.95;71.52;99607.13;7397879;19;1353;-48
2023/04/12 09:58:20;;;;;;;;;;;;;;;19.07;71.59;99600.47;7396319;19;1358;-48
2023/04/12 10:00:49;;;;;;;;;;;;;;;19.47;70.70;99626.47;7398435;19;1844;-49
2023/04/12 10:03:17;;;;;;;;;;;;;;;19.40;70.67;99605.88;7398524;19;1845;-48
2023/04/12 10:05:46;;;;;;;;;;;;;;;19.21;71.38;99628.47;7396543;19;1377;-49
2023/04/12 10:08:16;;;;;;;;;;;;;;;19.09;71.46;99619.88;7398603;19;1162;-49
2023/04/12 10:10:46;;;;;;;;;;;;;;;18.95;71.87;99624.03;7398072;19;1492;-48
2023/04/12 10:13:14;;;;;;;;;;;;;;;19.11;71.28;99609.00;7397899;19;1255;-49
2023/04/12 10:15:47;;;;;;;;;;;;;;;19.37;70.80;99614.25;7398535;19;1392;-49
2023/04/12 10:18:16;;;;;;;;;;;;;;;19.32;71.00;99620.13;7398180;19;1572;-50
2023/04/12 10:20:44;;;;;;;;;;;;;;;19.15;71.20;99623.75;7398376;19;1638;-48
2023/04/12 10:23:13;;;;;;;;;;;;;;;19.03;71.45;99618.69;7397948;19;1845;-47
2023/04/12 10:25:42;;;;;;;;;;;;;;;18.91;71.88;99617.34;7397210;19;1306;-46
2023/04/12 10:28:17;;;;;;;;;;;;;;;19.07;71.43;99628.09;7396105;19;1480;-46
2023/04/12 10:30:50;;;;;;;;;;;;;;;19.36;70.55;99626.81;7397315;19;1229;-46
2023/04/12 10:33:19;;;;;;;;;;;;;;;19.24;70.89;99625.47;7397652;19;1615;-46
2023/04/12 10:35:51;;;;;;;;;;;;;;;19.05;71.70;99622.06;7398044;19;1476;-46
2023/04/12 10:38:20;;;;;;;;;;;;;;;18.91;71.80;99620.00;7396942;19;1438;-46
2023/04/12 10:41:06;;;;;;;;;;;;;;;18.89;72.29;99619.34;7395823;19;1129;-46
2023/04/12 10:43:34;;;;;;;;;;;;;;;19.24;71.47;99622.78;7396772;19;1859;-46
2023/04/12 10:46:05;;;;;;;;;;;;;;;19.27;71.12;99627.78;7397138;19;1504;-46
2023/04/12 10:48:34;;;;;;;;;;;;;;;19.12;71.60;99629.44;7396769;19;1525;-46
2023/04/12 10:51:25;;;;;;;;;;;;;;;18.94;72.55;99618.84;7396949;19;1574;-46
2023/04/12 10:53:55;;;;;;;;;;;;;;;18.89;72.81;99624.69;7397716;19;1295;-46
2023/04/12 10:56:38;;;;;;;;;;;;;;;19.24;71.86;99623.63;7397815;19;1621;-46
2023/04/12 10:59:07;;;;;;;;;;;;;;;19.28;71.43;99622.28;7395131;19;1243;-46
2023/04/12 11:01:38;;;;;;;;;;;;;;;19.16;71.96;99622.75;7395089;19;1868;-46
2023/04/12 11:04:11;;;;;;;;;;;;;;;19.00;72.52;99629.75;7395868;19;1864;-46
2023/04/12 11:06:58;;;;;;;;;;;;;;;18.85;72.70;99631.38;7397478;19;1345;-46
2023/04/12 11:09:28;;;;;;;;;;;;;;;19.05;72.17;99618.53;7396541;19;1498;-46
2023/04/12 11:12:01;;;;;;;;;;;;;;;19.45;70.64;99630.34;7395943;19;1654;-46
2023/04/12 11:14:31;;;;;;;;;;;;;;;19.33;70.73;99637.84;7397429;19;1204;-46
2023/04/12 11:17:14;;;;;;;;;;;;;;;19.08;71.64;99645.03;7395628;19;1493;-46
2023/04/12 11:19:47;;;;;;;;;;;;;;;18.90;71.81;99649.63;7394460;19;1188;-46
2023/04/12 11:22:16;;;;;;;;;;;;;;;18.85;71.97;99644.78;7395728;19;1579;-47
2023/04/12 11:24:46;;;;;;;;;;;;;;;19.17;71.14;99637.84;7395182;19;1864;-46
2023/04/12 11:27:15;;;;;;;;;;;;;;;19.31;70.18;99623.78;7396885;19;1170;-46
2023/04/12 11:29:43;;;;;;;;;;;;;;;19.16;70.53;99625.41;7396311;19;1521;-46
2023/04/12 11:32:13;;;;;;;;;;;;;;;19.02;70.78;99632.25;7394549;19;1464;-47
2023/04/12 11:34:42;;;;;;;;;;;;;;;18.88;70.19;99620.34;7395303;19;1564;-46
2023/04/12 11:37:13;;;;;;;;;;;;;;;18.81;70.44;99628.19;7396959;19;1637;-46
2023/04/12 11:39:43;;;;;;;;;;;;;;;18.97;70.32;99631.91;7396975;19;1544;-47
2023/04/12 11:42:14;;;;;;;;;;;;;;;19.30;69.41;99631.97;7395961;19;1232;-46
2023/04/12 11:44:43;;;;;;;;;;;;;;;19.33;69.20;99621.78;7395243;19;1871;-46
2023/04/12 11:47:15;;;;;;;;;;;;;;;19.14;69.67;99639.00;7395083;19;1861;-46
2023/04/12 11:49:47;;;;;;;;;;;;;;;19.02;70.10;99613.50;7392664;19;1543;-46
2023/04/12 11:52:19;;;;;;;;;;;;;;;18.94;70.78;99638.44;7394796;19;1261;-46
2023/04/12 11:54:48;;;;;;;;;;;;;;;19.11;70.02;99638.50;7395004;19;1215;-46
2023/04/12 11:57:18;;;;;;;;;;;;;;;19.42;68.64;99620.78;7395641;19;1650;-46
2023/04/12 11:59:46;;;;;;;;;;;;;;;19.21;69.60;99626.63;7391933;19;1619;-46
2023/04/12 12:02:16;;;;;;;;;;;;;;;19.00;69.97;99624.41;7393890;19;1362;-46
2023/04/12 12:04:47;;;;;;;;;;;;;;;18.80;69.97;99621.16;7394868;19;1841;-46
2023/04/12 12:07:16;;;;;;;;;;;;;;;18.80;70.03;99626.53;7396301;19;1273;-47
2023/04/12 12:09:48;;;;;;;;;;;;;;;19.18;69.00;99628.78;7394110;19;1541;-47
2023/04/12 12:12:16;;;;;;;;;;;;;;;19.25;68.59;99638.69;7394310;19;1953;-46
2023/04/12 12:14:46;;;;;;;;;;;;;;;19.07;69.19;99641.47;7394628;19;1468;-46
2023/04/12 12:17:15;;;;;;;;;;;;;;;18.84;69.62;99632.38;7395753;19;1206;-46
2023/04/12 12:19:44;;;;;;;;;;;;;;;18.77;69.86;99637.50;7395772;19;1290;-46
2023/04/12 12:22:14;;;;;;;;;;;;;;;19.16;69.04;99646.88;7393080;19;1469;-46
2023/04/12 12:24:49;;;;;;;;;;;;;;;19.34;68.58;99623.47;7394268;19;1834;-46
2023/04/12 12:27:19;;;;;;;;;;;;;;;19.07;69.41;99633.44;7394568;19;1549;-46
2023/04/12 12:29:50;;;;;;;;;;;;;;;18.93;69.44;99636.75;7393663;19;1602;-46
2023/04/12 12:32:19;;;;;;;;;;;;;;;18.88;69.62;99656.00;7393849;19;1252;-46
2023/04/12 12:34:54;;;;;;;;;;;;;;;19.05;68.34;99648.00;7391444;19;1134;-46
2023/04/12 12:37:24;;;;;;;;;;;;;;;19.36;67.71;99634.84;7395368;19;1500;-47
2023/04/12 12:40:15;;;;;;;;;;;;;;;19.16;68.28;99633.47;7394551;19;1555;-47
2023/04/12 12:42:47;;;;;;;;;;;;;;;19.01;69.10;99633.28;7393301;19;1516;-46
2023/04/12 12:45:16;;;;;;;;;;;;;;;18.84;70.05;99635.03;7392084;19;1858;-46
2023/04/12 12:47:47;;;;;;;;;;;;;;;18.96;69.16;99641.81;7392691;19;1315;-46
2023/04/12 12:50:16;;;;;;;;;;;;;;;19.41;68.06;99640.53;7390950;19;1538;-46
2023/04/12 12:52:47;;;;;;;;;;;;;;;19.25;68.64;99632.50;7391577;19;1445;-45
2023/04/12 12:55:19;;;;;;;;;;;;;;;19.04;69.09;99630.28;7394586;19;1567;-46
2023/04/12 12:57:48;;;;;;;;;;;;;;;18.80;69.97;99645.25;7394369;19;1189;-46
2023/04/12 13:00:17;;;;;;;;;;;;;;;19.02;69.33;99634.94;7388522;19;1860;-49
2023/04/12 13:02:47;;;;;;;;;;;;;;;19.39;68.28;99628.31;7392147;19;1930;-52
2023/04/12 13:05:15;;;;;;;;;;;;;;;19.20;69.07;99645.53;7392375;19;1865;-48
2023/04/12 13:07:44;;;;;;;;;;;;;;;19.13;69.21;99637.31;7393236;19;1182;-48
2023/04/12 13:10:12;;;;;;;;;;;;;;;18.93;69.89;99634.09;7392695;19;1475;-50